sensor_id;sensor_type;location;lat;lon;timestamp;temperature;humidity
13928;DHT22;7036;50.834;4.718;2023-04-03T00:01:48;18.00;55.40
13928;DHT22;7036;50.834;4.718;2023-04-03T00:04:15;18.00;55.30
13928;DHT22;7036;50.834;4.718;2023-04-03T00:06:43;18.00;55.40
13928;DHT22;7036;50.834;4.718;2023-04-03T00:09:12;18.00;55.30
13928;DHT22;7036;50.834;4.718;2023-04-03T00:11:38;17.90;55.20
13928;DHT22;7036;50.834;4.718;2023-04-03T00:14:06;18.00;55.20
13928;DHT22;7036;50.834;4.718;2023-04-03T00:16:33;18.00;55.20
13928;DHT22;7036;50.834;4.718;2023-04-03T00:19:01;17.90;55.30
13928;DHT22;7036;50.834;4.718;2023-04-03T00:21:28;17.90;55.20
13928;DHT22;7036;50.834;4.718;2023-04-03T00:23:56;17.90;55.20
13928;DHT22;7036;50.834;4.718;2023-04-03T00:26:23;17.90;55.20
13928;DHT22;7036;50.834;4.718;2023-04-03T00:28:50;17.90;55.20
13928;DHT22;7036;50.834;4.718;2023-04-03T00:31:18;17.90;55.30
13928;DHT22;7036;50.834;4.718;2023-04-03T00:33:45;17.90;55.20
13928;DHT22;7036;50.834;4.718;2023-04-03T00:36:13;17.80;55.10
13928;DHT22;7036;50.834;4.718;2023-04-03T00:38:40;17.90;55.20
13928;DHT22;7036;50.834;4.718;2023-04-03T00:41:08;17.80;55.10
13928;DHT22;7036;50.834;4.718;2023-04-03T00:43:36;17.80;55.20
13928;DHT22;7036;50.834;4.718;2023-04-03T00:46:04;17.80;55.20
13928;DHT22;7036;50.834;4.718;2023-04-03T00:48:34;17.80;55.10
13928;DHT22;7036;50.834;4.718;2023-04-03T00:51:00;17.80;55.20
13928;DHT22;7036;50.834;4.718;2023-04-03T00:53:35;17.80;55.00
13928;DHT22;7036;50.834;4.718;2023-04-03T00:56:00;17.80;55.10
13928;DHT22;7036;50.834;4.718;2023-04-03T00:58:37;17.70;55.10
13928;DHT22;7036;50.834;4.718;2023-04-03T01:01:03;17.70;55.00
13928;DHT22;7036;50.834;4.718;2023-04-03T01:03:29;17.70;55.10
13928;DHT22;7036;50.834;4.718;2023-04-03T01:05:57;17.70;55.00
13928;DHT22;7036;50.834;4.718;2023-04-03T01:08:24;17.70;55.10
13928;DHT22;7036;50.834;4.718;2023-04-03T01:10:52;17.70;55.10
13928;DHT22;7036;50.834;4.718;2023-04-03T01:13:28;17.70;54.90
13928;DHT22;7036;50.834;4.718;2023-04-03T01:15:52;17.70;54.30
13928;DHT22;7036;50.834;4.718;2023-04-03T01:18:20;17.70;55.00
13928;DHT22;7036;50.834;4.718;2023-04-03T01:23:47;17.60;55.00
13928;DHT22;7036;50.834;4.718;2023-04-03T01:26:10;17.60;54.90
13928;DHT22;7036;50.834;4.718;2023-04-03T01:28:39;17.60;55.00
13928;DHT22;7036;50.834;4.718;2023-04-03T01:33:38;17.60;54.90
13928;DHT22;7036;50.834;4.718;2023-04-03T01:36:07;17.60;55.00
13928;DHT22;7036;50.834;4.718;2023-04-03T01:38:34;17.60;55.10
13928;DHT22;7036;50.834;4.718;2023-04-03T01:41:02;17.60;55.00
13928;DHT22;7036;50.834;4.718;2023-04-03T01:43:30;17.60;55.10
13928;DHT22;7036;50.834;4.718;2023-04-03T01:45:58;17.50;54.90
13928;DHT22;7036;50.834;4.718;2023-04-03T01:48:26;17.50;55.10
13928;DHT22;7036;50.834;4.718;2023-04-03T01:50:54;17.50;55.00
13928;DHT22;7036;50.834;4.718;2023-04-03T01:53:22;17.50;54.90
13928;DHT22;7036;50.834;4.718;2023-04-03T01:55:49;17.50;54.80
13928;DHT22;7036;50.834;4.718;2023-04-03T01:58:17;17.50;54.90
13928;DHT22;7036;50.834;4.718;2023-04-03T02:00:44;17.50;54.90
13928;DHT22;7036;50.834;4.718;2023-04-03T02:03:13;17.40;55.10
13928;DHT22;7036;50.834;4.718;2023-04-03T02:05:40;17.40;54.90
13928;DHT22;7036;50.834;4.718;2023-04-03T02:08:07;17.40;54.90
13928;DHT22;7036;50.834;4.718;2023-04-03T02:10:34;17.40;54.90
13928;DHT22;7036;50.834;4.718;2023-04-03T02:13:02;17.40;55.00
13928;DHT22;7036;50.834;4.718;2023-04-03T02:15:29;17.40;54.90
13928;DHT22;7036;50.834;4.718;2023-04-03T02:17:57;17.40;55.00
13928;DHT22;7036;50.834;4.718;2023-04-03T02:20:24;17.40;54.80
13928;DHT22;7036;50.834;4.718;2023-04-03T02:22:52;17.40;54.90
13928;DHT22;7036;50.834;4.718;2023-04-03T02:25:20;17.40;54.90
13928;DHT22;7036;50.834;4.718;2023-04-03T02:27:48;17.40;55.00
13928;DHT22;7036;50.834;4.718;2023-04-03T02:30:16;17.40;54.90
13928;DHT22;7036;50.834;4.718;2023-04-03T02:32:44;17.40;54.90
13928;DHT22;7036;50.834;4.718;2023-04-03T02:35:12;17.40;54.80
13928;DHT22;7036;50.834;4.718;2023-04-03T02:37:39;17.30;54.70
13928;DHT22;7036;50.834;4.718;2023-04-03T02:40:06;17.30;54.00
13928;DHT22;7036;50.834;4.718;2023-04-03T02:42:34;17.30;54.90
13928;DHT22;7036;50.834;4.718;2023-04-03T02:45:02;17.30;54.80
13928;DHT22;7036;50.834;4.718;2023-04-03T02:47:30;17.30;54.80
13928;DHT22;7036;50.834;4.718;2023-04-03T02:49:57;17.30;54.70
13928;DHT22;7036;50.834;4.718;2023-04-03T02:52:25;17.30;54.80
13928;DHT22;7036;50.834;4.718;2023-04-03T02:54:53;17.30;54.80
13928;DHT22;7036;50.834;4.718;2023-04-03T02:57:21;17.30;54.80
13928;DHT22;7036;50.834;4.718;2023-04-03T02:59:49;17.30;54.80
13928;DHT22;7036;50.834;4.718;2023-04-03T03:02:18;17.30;54.70
13928;DHT22;7036;50.834;4.718;2023-04-03T03:04:46;17.20;54.70
13928;DHT22;7036;50.834;4.718;2023-04-03T03:07:12;17.20;54.70
13928;DHT22;7036;50.834;4.718;2023-04-03T03:09:40;17.20;54.80
13928;DHT22;7036;50.834;4.718;2023-04-03T03:12:07;17.20;54.60
13928;DHT22;7036;50.834;4.718;2023-04-03T03:14:35;17.20;54.70
13928;DHT22;7036;50.834;4.718;2023-04-03T03:17:03;17.20;54.70
13928;DHT22;7036;50.834;4.718;2023-04-03T03:19:31;17.20;54.60
13928;DHT22;7036;50.834;4.718;2023-04-03T03:21:59;17.20;54.50
13928;DHT22;7036;50.834;4.718;2023-04-03T03:24:27;17.20;54.70
13928;DHT22;7036;50.834;4.718;2023-04-03T03:26:55;17.20;54.60
13928;DHT22;7036;50.834;4.718;2023-04-03T03:29:23;17.20;54.60
13928;DHT22;7036;50.834;4.718;2023-04-03T03:31:50;17.10;54.60
13928;DHT22;7036;50.834;4.718;2023-04-03T03:34:18;17.10;54.60
13928;DHT22;7036;50.834;4.718;2023-04-03T03:36:46;17.10;54.60
13928;DHT22;7036;50.834;4.718;2023-04-03T03:39:14;17.10;54.50
13928;DHT22;7036;50.834;4.718;2023-04-03T03:41:42;17.10;54.40
13928;DHT22;7036;50.834;4.718;2023-04-03T03:44:11;17.10;54.40
13928;DHT22;7036;50.834;4.718;2023-04-03T03:46:39;17.10;54.30
13928;DHT22;7036;50.834;4.718;2023-04-03T03:49:06;17.10;54.40
13928;DHT22;7036;50.834;4.718;2023-04-03T03:51:34;17.10;54.50
13928;DHT22;7036;50.834;4.718;2023-04-03T03:54:01;17.10;54.40
13928;DHT22;7036;50.834;4.718;2023-04-03T03:56:28;17.10;53.70
13928;DHT22;7036;50.834;4.718;2023-04-03T03:58:55;17.10;54.40
13928;DHT22;7036;50.834;4.718;2023-04-03T04:01:23;17.00;54.20
13928;DHT22;7036;50.834;4.718;2023-04-03T04:03:50;17.00;54.40
13928;DHT22;7036;50.834;4.718;2023-04-03T04:06:17;17.00;54.20
13928;DHT22;7036;50.834;4.718;2023-04-03T04:08:45;17.00;54.20
13928;DHT22;7036;50.834;4.718;2023-04-03T04:11:12;17.00;54.20
13928;DHT22;7036;50.834;4.718;2023-04-03T04:13:39;17.00;54.20
13928;DHT22;7036;50.834;4.718;2023-04-03T04:16:07;17.00;54.20
13928;DHT22;7036;50.834;4.718;2023-04-03T04:18:34;17.00;54.20
13928;DHT22;7036;50.834;4.718;2023-04-03T04:21:03;17.00;54.30
13928;DHT22;7036;50.834;4.718;2023-04-03T04:23:30;17.00;54.20
13928;DHT22;7036;50.834;4.718;2023-04-03T04:25:58;17.00;54.20
13928;DHT22;7036;50.834;4.718;2023-04-03T04:28:26;17.00;54.20
13928;DHT22;7036;50.834;4.718;2023-04-03T04:30:53;16.90;54.10
13928;DHT22;7036;50.834;4.718;2023-04-03T04:33:21;16.90;54.10
13928;DHT22;7036;50.834;4.718;2023-04-03T04:35:49;16.90;54.20
13928;DHT22;7036;50.834;4.718;2023-04-03T04:38:17;16.90;54.20
13928;DHT22;7036;50.834;4.718;2023-04-03T04:40:46;16.90;54.20
13928;DHT22;7036;50.834;4.718;2023-04-03T04:43:12;16.90;54.00
13928;DHT22;7036;50.834;4.718;2023-04-03T04:45:40;16.90;54.00
13928;DHT22;7036;50.834;4.718;2023-04-03T04:48:07;16.90;54.10
13928;DHT22;7036;50.834;4.718;2023-04-03T04:50:34;16.90;54.00
13928;DHT22;7036;50.834;4.718;2023-04-03T04:53:02;16.90;54.00
13928;DHT22;7036;50.834;4.718;2023-04-03T04:55:31;16.80;54.00
13928;DHT22;7036;50.834;4.718;2023-04-03T04:57:58;16.90;54.00
13928;DHT22;7036;50.834;4.718;2023-04-03T05:00:25;16.90;54.00
13928;DHT22;7036;50.834;4.718;2023-04-03T05:02:53;16.80;54.10
13928;DHT22;7036;50.834;4.718;2023-04-03T05:05:21;16.80;54.00
13928;DHT22;7036;50.834;4.718;2023-04-03T05:07:50;16.80;54.00
13928;DHT22;7036;50.834;4.718;2023-04-03T05:10:17;16.80;53.90
13928;DHT22;7036;50.834;4.718;2023-04-03T05:12:44;16.80;53.90
13928;DHT22;7036;50.834;4.718;2023-04-03T05:15:12;16.80;53.90
13928;DHT22;7036;50.834;4.718;2023-04-03T05:17:38;16.80;53.80
13928;DHT22;7036;50.834;4.718;2023-04-03T05:20:06;16.80;53.80
13928;DHT22;7036;50.834;4.718;2023-04-03T05:22:34;16.80;53.90
13928;DHT22;7036;50.834;4.718;2023-04-03T05:25:01;16.80;53.80
13928;DHT22;7036;50.834;4.718;2023-04-03T05:27:29;16.80;53.90
13928;DHT22;7036;50.834;4.718;2023-04-03T05:29:56;16.80;53.80
13928;DHT22;7036;50.834;4.718;2023-04-03T05:32:25;16.80;54.00
13928;DHT22;7036;50.834;4.718;2023-04-03T05:34:52;16.70;53.90
13928;DHT22;7036;50.834;4.718;2023-04-03T05:37:21;16.70;53.90
13928;DHT22;7036;50.834;4.718;2023-04-03T05:39:49;16.70;53.80
13928;DHT22;7036;50.834;4.718;2023-04-03T05:42:16;16.70;53.80
13928;DHT22;7036;50.834;4.718;2023-04-03T05:44:44;16.70;53.90
13928;DHT22;7036;50.834;4.718;2023-04-03T05:47:12;16.70;54.00
13928;DHT22;7036;50.834;4.718;2023-04-03T05:49:40;16.70;54.00
13928;DHT22;7036;50.834;4.718;2023-04-03T05:52:27;16.70;53.90
13928;DHT22;7036;50.834;4.718;2023-04-03T05:54:53;16.70;53.90
13928;DHT22;7036;50.834;4.718;2023-04-03T05:57:20;16.70;53.80
13928;DHT22;7036;50.834;4.718;2023-04-03T05:59:48;16.70;54.00
13928;DHT22;7036;50.834;4.718;2023-04-03T06:02:22;16.70;53.80
13928;DHT22;7036;50.834;4.718;2023-04-03T06:04:45;16.70;53.90
13928;DHT22;7036;50.834;4.718;2023-04-03T06:07:13;16.70;53.80
13928;DHT22;7036;50.834;4.718;2023-04-03T06:09:40;16.70;53.90
13928;DHT22;7036;50.834;4.718;2023-04-03T06:12:07;16.60;53.70
13928;DHT22;7036;50.834;4.718;2023-04-03T06:14:35;16.70;53.80
13928;DHT22;7036;50.834;4.718;2023-04-03T06:17:03;16.70;53.90
13928;DHT22;7036;50.834;4.718;2023-04-03T06:19:31;16.70;53.90
13928;DHT22;7036;50.834;4.718;2023-04-03T06:21:59;16.70;53.90
13928;DHT22;7036;50.834;4.718;2023-04-03T06:24:27;16.70;53.90
13928;DHT22;7036;50.834;4.718;2023-04-03T06:26:55;16.70;53.90
13928;DHT22;7036;50.834;4.718;2023-04-03T06:29:23;16.70;53.90
13928;DHT22;7036;50.834;4.718;2023-04-03T06:31:51;16.70;53.90
13928;DHT22;7036;50.834;4.718;2023-04-03T06:34:20;16.70;53.80
13928;DHT22;7036;50.834;4.718;2023-04-03T06:36:46;16.70;53.70
13928;DHT22;7036;50.834;4.718;2023-04-03T06:39:17;16.70;53.70
13928;DHT22;7036;50.834;4.718;2023-04-03T06:41:41;16.70;53.70
13928;DHT22;7036;50.834;4.718;2023-04-03T06:44:09;16.70;53.80
13928;DHT22;7036;50.834;4.718;2023-04-03T06:46:37;16.70;54.40
13928;DHT22;7036;50.834;4.718;2023-04-03T06:49:04;16.70;53.80
13928;DHT22;7036;50.834;4.718;2023-04-03T06:51:33;16.80;53.80
13928;DHT22;7036;50.834;4.718;2023-04-03T06:54:00;16.80;53.70
13928;DHT22;7036;50.834;4.718;2023-04-03T06:56:28;16.80;53.70
13928;DHT22;7036;50.834;4.718;2023-04-03T06:58:56;16.80;53.70
13928;DHT22;7036;50.834;4.718;2023-04-03T07:01:26;16.80;53.60
13928;DHT22;7036;50.834;4.718;2023-04-03T07:03:51;16.80;53.50
13928;DHT22;7036;50.834;4.718;2023-04-03T07:06:18;16.80;53.50
13928;DHT22;7036;50.834;4.718;2023-04-03T07:08:46;16.80;53.60
13928;DHT22;7036;50.834;4.718;2023-04-03T07:11:13;16.80;53.50
13928;DHT22;7036;50.834;4.718;2023-04-03T07:13:40;16.80;53.50
13928;DHT22;7036;50.834;4.718;2023-04-03T07:16:07;16.80;53.40
13928;DHT22;7036;50.834;4.718;2023-04-03T07:18:35;16.90;53.60
13928;DHT22;7036;50.834;4.718;2023-04-03T07:21:04;16.90;53.70
13928;DHT22;7036;50.834;4.718;2023-04-03T07:23:31;16.80;53.60
13928;DHT22;7036;50.834;4.718;2023-04-03T07:25:59;16.90;53.70
13928;DHT22;7036;50.834;4.718;2023-04-03T07:28:28;16.90;53.70
13928;DHT22;7036;50.834;4.718;2023-04-03T07:31:04;16.90;54.20
13928;DHT22;7036;50.834;4.718;2023-04-03T07:33:22;16.90;53.70
13928;DHT22;7036;50.834;4.718;2023-04-03T07:35:50;16.90;53.70
13928;DHT22;7036;50.834;4.718;2023-04-03T07:38:18;16.90;53.70
13928;DHT22;7036;50.834;4.718;2023-04-03T07:40:49;16.90;54.20
13928;DHT22;7036;50.834;4.718;2023-04-03T07:43:15;16.90;53.70
13928;DHT22;7036;50.834;4.718;2023-04-03T07:45:42;16.90;53.60
13928;DHT22;7036;50.834;4.718;2023-04-03T07:48:11;17.00;53.80
13928;DHT22;7036;50.834;4.718;2023-04-03T07:50:39;16.90;54.20
13928;DHT22;7036;50.834;4.718;2023-04-03T07:53:05;17.00;53.70
13928;DHT22;7036;50.834;4.718;2023-04-03T07:55:33;17.10;53.90
13928;DHT22;7036;50.834;4.718;2023-04-03T07:57:59;17.20;53.90
13928;DHT22;7036;50.834;4.718;2023-04-03T08:00:27;17.40;53.90
13928;DHT22;7036;50.834;4.718;2023-04-03T08:02:55;17.50;53.80
13928;DHT22;7036;50.834;4.718;2023-04-03T08:05:25;17.60;53.60
13928;DHT22;7036;50.834;4.718;2023-04-03T08:07:52;17.60;53.60
13928;DHT22;7036;50.834;4.718;2023-04-03T08:10:20;17.70;53.40
13928;DHT22;7036;50.834;4.718;2023-04-03T08:12:47;17.70;53.30
13928;DHT22;7036;50.834;4.718;2023-04-03T08:15:15;17.90;53.30
13928;DHT22;7036;50.834;4.718;2023-04-03T08:17:43;17.90;53.20
13928;DHT22;7036;50.834;4.718;2023-04-03T08:20:10;17.90;53.10
13928;DHT22;7036;50.834;4.718;2023-04-03T08:22:38;17.90;53.20
13928;DHT22;7036;50.834;4.718;2023-04-03T08:25:07;18.00;53.50
13928;DHT22;7036;50.834;4.718;2023-04-03T08:27:33;18.00;53.40
13928;DHT22;7036;50.834;4.718;2023-04-03T08:30:01;18.00;53.70
13928;DHT22;7036;50.834;4.718;2023-04-03T08:32:28;18.00;53.60
13928;DHT22;7036;50.834;4.718;2023-04-03T08:34:56;18.00;53.80
13928;DHT22;7036;50.834;4.718;2023-04-03T08:37:23;18.00;53.70
13928;DHT22;7036;50.834;4.718;2023-04-03T08:39:51;18.00;54.00
13928;DHT22;7036;50.834;4.718;2023-04-03T08:42:26;18.00;53.80
13928;DHT22;7036;50.834;4.718;2023-04-03T08:44:47;18.00;53.70
13928;DHT22;7036;50.834;4.718;2023-04-03T08:50:04;17.90;53.40
13928;DHT22;7036;50.834;4.718;2023-04-03T08:52:39;17.90;54.00
13928;DHT22;7036;50.834;4.718;2023-04-03T08:55:06;17.90;53.60
13928;DHT22;7036;50.834;4.718;2023-04-03T08:57:41;17.90;53.70
13928;DHT22;7036;50.834;4.718;2023-04-03T09:02:44;18.00;53.80
13928;DHT22;7036;50.834;4.718;2023-04-03T09:05:14;17.90;53.70
13928;DHT22;7036;50.834;4.718;2023-04-03T09:07:42;17.90;53.70
13928;DHT22;7036;50.834;4.718;2023-04-03T09:10:07;17.90;53.70
13928;DHT22;7036;50.834;4.718;2023-04-03T09:12:37;17.90;53.70
13928;DHT22;7036;50.834;4.718;2023-04-03T09:15:10;17.90;53.80
13928;DHT22;7036;50.834;4.718;2023-04-03T09:17:43;17.90;54.30
13928;DHT22;7036;50.834;4.718;2023-04-03T09:22:36;17.90;53.70
13928;DHT22;7036;50.834;4.718;2023-04-03T09:25:15;17.90;53.60
13928;DHT22;7036;50.834;4.718;2023-04-03T09:27:41;17.90;53.60
13928;DHT22;7036;50.834;4.718;2023-04-03T09:30:16;17.90;53.60
13928;DHT22;7036;50.834;4.718;2023-04-03T09:32:46;17.90;53.50
13928;DHT22;7036;50.834;4.718;2023-04-03T09:37:44;17.90;53.60
13928;DHT22;7036;50.834;4.718;2023-04-03T09:40:28;17.90;53.50
13928;DHT22;7036;50.834;4.718;2023-04-03T09:42:56;17.90;53.40
13928;DHT22;7036;50.834;4.718;2023-04-03T09:45:28;18.00;53.20
13928;DHT22;7036;50.834;4.718;2023-04-03T09:48:06;18.10;52.90
13928;DHT22;7036;50.834;4.718;2023-04-03T09:50:32;18.30;53.10
13928;DHT22;7036;50.834;4.718;2023-04-03T09:52:58;18.20;52.90
13928;DHT22;7036;50.834;4.718;2023-04-03T09:55:26;18.30;52.80
13928;DHT22;7036;50.834;4.718;2023-04-03T09:58:01;18.40;52.80
13928;DHT22;7036;50.834;4.718;2023-04-03T10:00:34;18.50;52.70
13928;DHT22;7036;50.834;4.718;2023-04-03T10:03:00;18.50;52.70
13928;DHT22;7036;50.834;4.718;2023-04-03T10:05:32;18.60;52.80
13928;DHT22;7036;50.834;4.718;2023-04-03T10:10:40;18.60;52.60
13928;DHT22;7036;50.834;4.718;2023-04-03T10:13:11;18.60;52.60
13928;DHT22;7036;50.834;4.718;2023-04-03T10:15:36;18.60;51.90
13928;DHT22;7036;50.834;4.718;2023-04-03T10:18:03;18.60;53.30
13928;DHT22;7036;50.834;4.718;2023-04-03T10:26:17;18.60;52.40
13928;DHT22;7036;50.834;4.718;2023-04-03T10:28:57;18.60;52.30
13928;DHT22;7036;50.834;4.718;2023-04-03T10:31:35;18.60;52.40
13928;DHT22;7036;50.834;4.718;2023-04-03T10:36:42;18.60;52.50
13928;DHT22;7036;50.834;4.718;2023-04-03T10:39:48;18.60;52.60
13928;DHT22;7036;50.834;4.718;2023-04-03T10:52:39;18.60;52.50
13928;DHT22;7036;50.834;4.718;2023-04-03T10:55:39;18.60;52.50
13928;DHT22;7036;50.834;4.718;2023-04-03T10:58:05;18.50;52.70
13928;DHT22;7036;50.834;4.718;2023-04-03T11:00:45;18.60;52.60
13928;DHT22;7036;50.834;4.718;2023-04-03T11:03:15;18.50;53.20
13928;DHT22;7036;50.834;4.718;2023-04-03T11:05:46;18.50;52.60
13928;DHT22;7036;50.834;4.718;2023-04-03T11:08:15;18.50;52.90
13928;DHT22;7036;50.834;4.718;2023-04-03T11:10:41;18.50;52.70
13928;DHT22;7036;50.834;4.718;2023-04-03T11:13:14;18.50;52.60
13928;DHT22;7036;50.834;4.718;2023-04-03T11:15:41;18.50;52.60
13928;DHT22;7036;50.834;4.718;2023-04-03T11:18:15;18.50;52.50
13928;DHT22;7036;50.834;4.718;2023-04-03T11:20:42;18.50;52.70
13928;DHT22;7036;50.834;4.718;2023-04-03T11:25:44;18.50;52.60
13928;DHT22;7036;50.834;4.718;2023-04-03T11:28:12;18.50;52.80
13928;DHT22;7036;50.834;4.718;2023-04-03T11:36:01;18.40;52.20
13928;DHT22;7036;50.834;4.718;2023-04-03T11:38:33;18.40;52.30
13928;DHT22;7036;50.834;4.718;2023-04-03T11:40:56;18.40;52.30
13928;DHT22;7036;50.834;4.718;2023-04-03T11:43:27;18.40;52.40
13928;DHT22;7036;50.834;4.718;2023-04-03T11:46:06;18.40;52.30
13928;DHT22;7036;50.834;4.718;2023-04-03T11:53:39;18.40;52.20
13928;DHT22;7036;50.834;4.718;2023-04-03T12:01:57;18.30;52.70
13928;DHT22;7036;50.834;4.718;2023-04-03T12:04:24;18.30;52.10
13928;DHT22;7036;50.834;4.718;2023-04-03T12:09:24;18.30;52.10
13928;DHT22;7036;50.834;4.718;2023-04-03T12:11:51;18.30;52.10
13928;DHT22;7036;50.834;4.718;2023-04-03T12:14:17;18.30;52.10
13928;DHT22;7036;50.834;4.718;2023-04-03T12:16:45;18.30;51.80
13928;DHT22;7036;50.834;4.718;2023-04-03T12:29:23;18.40;52.00
13928;DHT22;7036;50.834;4.718;2023-04-03T12:32:20;18.40;52.00
13928;DHT22;7036;50.834;4.718;2023-04-03T12:35:06;18.50;51.60
13928;DHT22;7036;50.834;4.718;2023-04-03T12:48:59;18.60;51.20
13928;DHT22;7036;50.834;4.718;2023-04-03T12:51:04;18.60;51.10
13928;DHT22;7036;50.834;4.718;2023-04-03T12:53:32;18.60;51.10
13928;DHT22;7036;50.834;4.718;2023-04-03T12:56:18;18.60;51.10
13928;DHT22;7036;50.834;4.718;2023-04-03T12:58:27;18.60;51.00
13928;DHT22;7036;50.834;4.718;2023-04-03T13:03:27;18.60;51.00
13928;DHT22;7036;50.834;4.718;2023-04-03T13:06:00;18.60;51.20
13928;DHT22;7036;50.834;4.718;2023-04-03T13:08:27;18.50;51.30
13928;DHT22;7036;50.834;4.718;2023-04-03T13:11:06;18.50;51.20
13928;DHT22;7036;50.834;4.718;2023-04-03T13:13:33;18.50;51.70
13928;DHT22;7036;50.834;4.718;2023-04-03T13:22:35;18.50;51.20
13928;DHT22;7036;50.834;4.718;2023-04-03T13:25:03;18.50;51.40
13928;DHT22;7036;50.834;4.718;2023-04-03T13:27:31;18.50;51.50
13928;DHT22;7036;50.834;4.718;2023-04-03T13:29:59;18.50;51.40
13928;DHT22;7036;50.834;4.718;2023-04-03T13:32:26;18.50;51.40
13928;DHT22;7036;50.834;4.718;2023-04-03T13:34:53;18.50;51.30
13928;DHT22;7036;50.834;4.718;2023-04-03T13:37:28;18.50;51.30
13928;DHT22;7036;50.834;4.718;2023-04-03T13:42:36;18.60;51.30
13928;DHT22;7036;50.834;4.718;2023-04-03T13:45:19;18.60;51.30
13928;DHT22;7036;50.834;4.718;2023-04-03T13:47:45;18.60;51.50
13928;DHT22;7036;50.834;4.718;2023-04-03T13:50:14;18.70;51.60
13928;DHT22;7036;50.834;4.718;2023-04-03T13:52:47;18.70;51.50
13928;DHT22;7036;50.834;4.718;2023-04-03T13:55:34;18.80;51.50
13928;DHT22;7036;50.834;4.718;2023-04-03T13:57:58;18.80;51.50
13928;DHT22;7036;50.834;4.718;2023-04-03T14:01:32;18.90;51.50
13928;DHT22;7036;50.834;4.718;2023-04-03T14:03:24;18.90;51.40
13928;DHT22;7036;50.834;4.718;2023-04-03T14:05:49;18.90;51.30
13928;DHT22;7036;50.834;4.718;2023-04-03T14:08:16;19.00;51.20
13928;DHT22;7036;50.834;4.718;2023-04-03T14:10:44;19.10;51.30
13928;DHT22;7036;50.834;4.718;2023-04-03T14:13:14;19.10;51.20
13928;DHT22;7036;50.834;4.718;2023-04-03T14:15:41;19.10;51.20
13928;DHT22;7036;50.834;4.718;2023-04-03T14:18:15;19.10;51.10
13928;DHT22;7036;50.834;4.718;2023-04-03T14:20:37;19.20;51.00
13928;DHT22;7036;50.834;4.718;2023-04-03T14:23:04;19.20;51.00
13928;DHT22;7036;50.834;4.718;2023-04-03T14:25:32;19.20;51.10
13928;DHT22;7036;50.834;4.718;2023-04-03T14:27:59;19.20;51.00
13928;DHT22;7036;50.834;4.718;2023-04-03T14:30:27;19.20;51.00
13928;DHT22;7036;50.834;4.718;2023-04-03T14:32:53;19.30;51.00
13928;DHT22;7036;50.834;4.718;2023-04-03T14:35:20;19.30;51.00
13928;DHT22;7036;50.834;4.718;2023-04-03T14:37:49;19.30;51.20
13928;DHT22;7036;50.834;4.718;2023-04-03T14:40:17;19.20;51.00
13928;DHT22;7036;50.834;4.718;2023-04-03T14:42:43;19.30;51.80
13928;DHT22;7036;50.834;4.718;2023-04-03T14:45:11;19.30;51.20
13928;DHT22;7036;50.834;4.718;2023-04-03T14:47:45;19.20;51.30
13928;DHT22;7036;50.834;4.718;2023-04-03T14:50:12;19.30;51.30
13928;DHT22;7036;50.834;4.718;2023-04-03T14:52:39;19.30;51.30
13928;DHT22;7036;50.834;4.718;2023-04-03T14:55:06;19.30;51.20
13928;DHT22;7036;50.834;4.718;2023-04-03T14:57:33;19.30;51.20
13928;DHT22;7036;50.834;4.718;2023-04-03T15:00:00;19.30;51.20
13928;DHT22;7036;50.834;4.718;2023-04-03T15:04:56;19.30;51.20
13928;DHT22;7036;50.834;4.718;2023-04-03T15:07:23;19.30;51.20
13928;DHT22;7036;50.834;4.718;2023-04-03T15:09:49;19.30;51.30
13928;DHT22;7036;50.834;4.718;2023-04-03T15:12:17;19.30;51.30
13928;DHT22;7036;50.834;4.718;2023-04-03T15:14:45;19.30;51.00
13928;DHT22;7036;50.834;4.718;2023-04-03T15:17:16;19.30;50.80
13928;DHT22;7036;50.834;4.718;2023-04-03T15:19:43;19.30;50.80
13928;DHT22;7036;50.834;4.718;2023-04-03T15:22:16;19.30;50.50
13928;DHT22;7036;50.834;4.718;2023-04-03T15:24:43;19.30;50.50
13928;DHT22;7036;50.834;4.718;2023-04-03T15:27:10;19.30;50.40
13928;DHT22;7036;50.834;4.718;2023-04-03T15:29:37;19.40;50.30
13928;DHT22;7036;50.834;4.718;2023-04-03T15:32:04;19.40;50.20
13928;DHT22;7036;50.834;4.718;2023-04-03T15:34:32;19.40;50.50
13928;DHT22;7036;50.834;4.718;2023-04-03T15:36:59;19.40;50.30
13928;DHT22;7036;50.834;4.718;2023-04-03T15:39:27;19.40;50.50
13928;DHT22;7036;50.834;4.718;2023-04-03T15:41:54;19.40;50.40
13928;DHT22;7036;50.834;4.718;2023-04-03T15:44:22;19.50;50.60
13928;DHT22;7036;50.834;4.718;2023-04-03T15:46:49;19.40;50.50
13928;DHT22;7036;50.834;4.718;2023-04-03T15:49:17;19.50;50.60
13928;DHT22;7036;50.834;4.718;2023-04-03T15:51:44;19.40;50.60
13928;DHT22;7036;50.834;4.718;2023-04-03T15:54:12;19.40;50.70
13928;DHT22;7036;50.834;4.718;2023-04-03T15:56:39;19.40;50.80
13928;DHT22;7036;50.834;4.718;2023-04-03T15:59:06;19.40;50.80
13928;DHT22;7036;50.834;4.718;2023-04-03T16:01:33;19.40;50.90
13928;DHT22;7036;50.834;4.718;2023-04-03T16:04:00;19.40;50.80
13928;DHT22;7036;50.834;4.718;2023-04-03T16:06:28;19.40;51.00
13928;DHT22;7036;50.834;4.718;2023-04-03T16:08:56;19.40;50.90
13928;DHT22;7036;50.834;4.718;2023-04-03T16:11:24;19.40;50.80
13928;DHT22;7036;50.834;4.718;2023-04-03T16:13:51;19.40;51.20
13928;DHT22;7036;50.834;4.718;2023-04-03T16:16:19;19.40;51.30
13928;DHT22;7036;50.834;4.718;2023-04-03T16:18:46;19.40;51.70
13928;DHT22;7036;50.834;4.718;2023-04-03T16:21:15;19.40;51.80
13928;DHT22;7036;50.834;4.718;2023-04-03T16:23:43;19.40;51.80
13928;DHT22;7036;50.834;4.718;2023-04-03T16:26:10;19.40;51.90
13928;DHT22;7036;50.834;4.718;2023-04-03T16:28:38;19.40;51.90
13928;DHT22;7036;50.834;4.718;2023-04-03T16:31:06;19.40;51.80
13928;DHT22;7036;50.834;4.718;2023-04-03T16:33:34;19.40;51.90
13928;DHT22;7036;50.834;4.718;2023-04-03T16:36:03;19.40;51.90
13928;DHT22;7036;50.834;4.718;2023-04-03T16:38:30;19.40;51.90
13928;DHT22;7036;50.834;4.718;2023-04-03T16:40:58;19.40;52.00
13928;DHT22;7036;50.834;4.718;2023-04-03T16:43:26;19.40;52.10
13928;DHT22;7036;50.834;4.718;2023-04-03T16:45:54;19.40;52.00
13928;DHT22;7036;50.834;4.718;2023-04-03T16:48:21;19.40;52.10
13928;DHT22;7036;50.834;4.718;2023-04-03T16:50:49;19.30;52.40
13928;DHT22;7036;50.834;4.718;2023-04-03T16:53:16;19.30;52.30
13928;DHT22;7036;50.834;4.718;2023-04-03T16:55:44;19.30;52.10
13928;DHT22;7036;50.834;4.718;2023-04-03T16:58:11;19.30;51.90
13928;DHT22;7036;50.834;4.718;2023-04-03T17:00:39;19.30;51.90
13928;DHT22;7036;50.834;4.718;2023-04-03T17:03:07;19.30;52.10
13928;DHT22;7036;50.834;4.718;2023-04-03T17:05:35;19.30;52.10
13928;DHT22;7036;50.834;4.718;2023-04-03T17:08:03;19.30;52.20
13928;DHT22;7036;50.834;4.718;2023-04-03T17:10:31;19.20;52.00
13928;DHT22;7036;50.834;4.718;2023-04-03T17:12:59;19.20;51.90
13928;DHT22;7036;50.834;4.718;2023-04-03T17:15:27;19.20;51.80
13928;DHT22;7036;50.834;4.718;2023-04-03T17:17:54;19.20;51.70
13928;DHT22;7036;50.834;4.718;2023-04-03T17:20:21;19.20;51.90
13928;DHT22;7036;50.834;4.718;2023-04-03T17:22:48;19.20;51.70
13928;DHT22;7036;50.834;4.718;2023-04-03T17:25:16;19.20;51.80
13928;DHT22;7036;50.834;4.718;2023-04-03T17:27:44;19.10;51.70